createdAt,value
2023-04-15T00:01:08.712Z,15.5
2023-04-15T00:13:08.933Z,15.5
2023-04-15T00:25:08.849Z,15.4
2023-04-15T00:37:08.805Z,15.4
2023-04-15T00:49:08.942Z,15.4
2023-04-15T01:01:08.994Z,15.3
2023-04-15T01:13:08.878Z,15.3
2023-04-15T01:25:08.839Z,15.3
2023-04-15T01:37:08.994Z,15.3
2023-04-15T01:49:08.948Z,15.3
2023-04-15T02:01:08.885Z,15.2
2023-04-15T02:13:08.887Z,15.2
2023-04-15T02:25:09.002Z,15.2
2023-04-15T02:37:09.054Z,15.2
2023-04-15T02:49:08.911Z,15.1
2023-04-15T03:01:09.106Z,15.1
2023-04-15T03:13:09.044Z,15.1
2023-04-15T03:25:09.012Z,15.1
2023-04-15T03:37:08.956Z,15.1
2023-04-15T03:49:09.158Z,15
2023-04-15T04:01:09.042Z,15.1
2023-04-15T04:13:09.075Z,15
2023-04-15T04:25:09.013Z,15
2023-04-15T04:37:08.990Z,15
2023-04-15T04:49:09.141Z,15
2023-04-15T05:01:09.161Z,14.9
2023-04-15T05:13:09.133Z,14.9
2023-04-15T05:25:09.233Z,14.9
2023-04-15T05:37:09.163Z,16
2023-04-15T05:49:09.167Z,17.1
2023-04-15T06:01:09.074Z,16.6
2023-04-15T06:13:09.258Z,16.2
2023-04-15T06:25:09.176Z,15.9
2023-04-15T06:37:09.162Z,15.7
2023-04-15T06:49:09.137Z,15.6
2023-04-15T07:01:09.287Z,15.5
2023-04-15T07:13:09.231Z,15.5
2023-04-15T07:25:09.197Z,15.5
2023-04-15T07:37:09.344Z,15.5
2023-04-15T07:49:09.370Z,15.5
2023-04-15T08:01:09.257Z,15.8
2023-04-15T08:13:09.264Z,15.9
2023-04-15T08:25:09.416Z,15.8
2023-04-15T08:37:10.422Z,15.7
2023-04-15T08:49:09.301Z,15.9
2023-04-15T09:01:10.045Z,16
2023-04-15T09:13:09.410Z,16
2023-04-15T09:25:09.427Z,16
2023-04-15T09:37:09.322Z,16.1
2023-04-15T09:49:09.519Z,16
2023-04-15T10:01:09.569Z,16
2023-04-15T10:13:09.425Z,16
2023-04-15T10:25:09.387Z,15.9
2023-04-15T10:37:09.539Z,15.9
2023-04-15T10:49:09.488Z,15.9
2023-04-15T11:01:09.428Z,15.9
2023-04-15T11:13:09.358Z,16
2023-04-15T11:25:09.573Z,16
2023-04-15T11:37:09.469Z,16.1
2023-04-15T11:49:09.462Z,16.1
2023-04-15T12:01:09.601Z,16.2
2023-04-15T12:13:09.585Z,16.2
2023-04-15T12:25:09.544Z,16.4
2023-04-15T12:37:09.498Z,16.5
2023-04-15T12:49:09.628Z,16.5
2023-04-15T13:01:09.618Z,16.7
2023-04-15T13:13:09.548Z,16.8
2023-04-15T13:25:09.588Z,16.7
2023-04-15T13:37:09.662Z,17
2023-04-15T13:49:09.660Z,17.2
2023-04-15T14:01:09.911Z,17.4
2023-04-15T14:13:09.725Z,17.5
2023-04-15T14:25:11.661Z,17.7
2023-04-15T14:37:09.679Z,17.8
2023-04-15T14:49:09.641Z,17.9
2023-04-15T15:01:09.696Z,18
2023-04-15T15:13:09.767Z,18.2
2023-04-15T15:25:09.789Z,18.2
2023-04-15T15:37:09.679Z,18.4
2023-04-15T15:49:09.864Z,18.5
2023-04-15T16:01:09.811Z,18.5
2023-04-15T16:13:09.781Z,18.6
2023-04-15T16:25:09.882Z,18.6
2023-04-15T16:37:09.895Z,18.6
2023-04-15T16:49:09.832Z,18.6
2023-04-15T17:01:09.821Z,18.5
2023-04-15T17:13:09.721Z,18.3
2023-04-15T17:25:09.987Z,18.2
2023-04-15T17:37:09.882Z,18.1
2023-04-15T17:49:09.870Z,18
2023-04-15T18:01:09.796Z,17.8
2023-04-15T18:13:09.967Z,17.8
2023-04-15T18:25:09.918Z,17.7
2023-04-15T18:37:09.988Z,17.7
2023-04-15T18:49:10.044Z,17.6
2023-04-15T19:01:11.809Z,17.7
2023-04-15T19:13:09.951Z,17.6
2023-04-15T19:25:09.954Z,17.6
2023-04-15T19:37:10.046Z,17.5
2023-04-15T19:49:10.069Z,17.5
2023-04-15T20:01:10.031Z,17.5
2023-04-15T20:13:09.977Z,17.5
2023-04-15T20:25:10.122Z,17.5
2023-04-15T20:37:10.174Z,17.4
2023-04-15T20:49:10.013Z,17.4
2023-04-15T21:01:10.224Z,17.4
2023-04-15T21:13:10.135Z,17.4
2023-04-15T21:25:10.117Z,17.4
2023-04-15T21:37:10.028Z,17.3
2023-04-15T21:49:10.197Z,17.3
2023-04-15T22:01:10.137Z,17.3
2023-04-15T22:13:10.093Z,17.3
2023-04-15T22:25:10.051Z,17.3
2023-04-15T22:37:10.223Z,17.2
2023-04-15T22:49:10.134Z,17.2
2023-04-15T23:01:10.203Z,17.2
2023-04-15T23:13:10.262Z,17.1
2023-04-15T23:25:10.446Z,17.3
2023-04-15T23:37:10.249Z,17.1
2023-04-15T23:49:10.451Z,17.1
